Time;durP1;ratioP1;P1;durP2;ratioP2;P2;SDS_P1;SDS_P2;PMS_P1;PMS_P2;Temp;Humidity;BMP_temperature;BMP_pressure;BME280_temperature;BME280_humidity;BME280_pressure;Samples;Min_cycle;Max_cycle;Signal;HPM_P1;HPM_P2
2023/09/08 07:00:32;;;;;;;;;;;;;;;19.77;57.69;101082.55;1794078;79;20158;-73
2023/09/08 07:03:02;;;;;;;;;;;;;;;20.00;57.55;101082.05;1793661;79;20165;-75
2023/09/08 07:05:29;;;;;;;;;;;;;;;20.28;56.57;101078.07;1798344;79;20327;-69
2023/09/08 07:07:55;;;;;;;;;;;;;;;20.51;55.44;101081.05;1790963;79;20106;-72
2023/09/08 07:10:22;;;;;;;;;;;;;;;20.66;54.46;101078.97;1804456;79;20994;-71
2023/09/08 07:12:49;;;;;;;;;;;;;;;20.78;54.03;101075.33;1805834;79;20171;-70
2023/09/08 07:15:16;;;;;;;;;;;;;;;20.88;53.54;101072.73;1807185;79;20148;-68
2023/09/08 07:32:49;;;;;;;;;;;;;;;22.01;51.09;101053.34;1795764;79;20384;-74
2023/09/08 07:35:16;;;;;;;;;;;;;;;22.30;50.58;101054.75;1806059;79;20125;-74
2023/09/08 07:37:44;;;;;;;;;;;;;;;22.50;49.42;101051.63;1786139;79;20179;-75
2023/09/08 07:40:11;;;;;;;;;;;;;;;22.66;48.71;101040.47;1777513;78;20135;-72
2023/09/08 07:47:40;;;;;;;;;;;;;;;23.23;47.29;101028.46;1756015;81;20166;-70
2023/09/08 07:50:19;;;;;;;;;;;;;;;23.41;46.13;101036.54;1713143;81;20209;-70
2023/09/08 07:58:01;;;;;;;;;;;;;;;23.25;45.73;101026.98;1761673;80;20148;-68
2023/09/08 08:00:27;;;;;;;;;;;;;;;23.26;45.84;101020.70;1737599;81;20143;-69
2023/09/08 08:10:28;;;;;;;;;;;;;;;23.63;44.41;101011.92;1743753;82;20174;-71
2023/09/08 08:12:55;;;;;;;;;;;;;;;23.68;44.40;101010.50;1735324;82;20564;-69
2023/09/08 08:15:23;;;;;;;;;;;;;;;23.71;44.27;101010.21;1743901;81;20185;-69
2023/09/08 08:17:50;;;;;;;;;;;;;;;23.80;44.16;101007.16;1760314;81;20134;-69
2023/09/08 08:20:17;;;;;;;;;;;;;;;23.81;43.84;101003.03;1741339;81;20150;-70
2023/09/08 08:22:47;;;;;;;;;;;;;;;23.77;43.52;100998.15;1746912;81;20433;-70
2023/09/08 08:25:14;;;;;;;;;;;;;;;23.78;43.71;101000.66;1756510;81;20142;-70
2023/09/08 08:27:41;;;;;;;;;;;;;;;23.88;43.89;100990.81;1758677;81;20424;-72
2023/09/08 08:43:09;;;;;;;;;;;;;;;24.45;42.18;100962.62;1685613;81;20183;-69
2023/09/08 08:49:20;;;;;;;;;;;;;;;24.51;41.01;100955.35;1754037;81;20131;-68
2023/09/08 08:52:10;;;;;;;;;;;;;;;24.51;40.95;100954.86;1757476;81;20324;-69
2023/09/08 08:54:35;;;;;;;;;;;;;;;24.55;40.89;100956.23;1732615;81;20136;-70
2023/09/08 09:07:08;;;;;;;;;;;;;;;24.20;40.85;100950.40;1738690;82;20199;-72
2023/09/08 09:09:37;;;;;;;;;;;;;;;24.06;41.02;100942.93;1742560;82;20182;-73
2023/09/08 09:12:06;;;;;;;;;;;;;;;23.90;41.60;100944.95;1740126;82;20150;-71
2023/09/08 09:14:35;;;;;;;;;;;;;;;23.83;41.71;100931.06;1746497;82;20178;-72
2023/09/08 09:19:37;;;;;;;;;;;;;;;23.50;41.80;100910.73;1736228;83;20195;-68
2023/09/08 09:22:04;;;;;;;;;;;;;;;23.33;42.46;100920.80;1727018;81;20142;-69
2023/09/08 09:29:46;;;;;;;;;;;;;;;23.12;43.21;100916.22;1746127;81;20158;-69
2023/09/08 09:32:14;;;;;;;;;;;;;;;23.08;43.50;100921.48;1741326;82;20111;-70
2023/09/08 09:34:49;;;;;;;;;;;;;;;23.02;43.36;100921.56;1743615;82;20124;-70
2023/09/08 09:40:41;;;;;;;;;;;;;;;22.95;43.63;100913.82;1737225;81;20343;-73
2023/09/08 09:43:39;;;;;;;;;;;;;;;22.93;44.05;100899.84;1734380;79;20208;-73
2023/09/08 09:51:19;;;;;;;;;;;;;;;22.86;44.18;100894.76;1729437;80;20136;-74
2023/09/08 09:53:50;;;;;;;;;;;;;;;22.81;44.25;100895.68;1727999;81;20432;-76
2023/09/08 10:11:48;;;;;;;;;;;;;;;22.55;44.79;100884.81;1767260;80;20161;-73
2023/09/08 10:14:15;;;;;;;;;;;;;;;22.55;44.95;100880.84;1757879;80;20126;-72
2023/09/08 10:16:45;;;;;;;;;;;;;;;22.54;44.93;100878.67;1729109;81;20190;-71
2023/09/08 10:19:14;;;;;;;;;;;;;;;22.54;44.89;100880.00;1754076;80;20192;-71
2023/09/08 11:28:49;;;;;;;;;;;;;;;21.67;47.14;100802.27;1768848;81;20247;-70
2023/09/08 11:31:16;;;;;;;;;;;;;;;21.65;46.77;100796.27;1747345;81;20197;-70
2023/09/08 11:33:43;;;;;;;;;;;;;;;21.63;46.59;100784.95;1752416;81;20158;-69
2023/09/08 11:36:16;;;;;;;;;;;;;;;21.61;46.58;100776.30;1726290;82;20262;-72
2023/09/08 11:38:45;;;;;;;;;;;;;;;21.64;47.08;100776.87;1742212;80;20130;-77
2023/09/08 11:41:12;;;;;;;;;;;;;;;21.67;47.08;100767.80;1757294;81;20169;-71
2023/09/08 11:43:49;;;;;;;;;;;;;;;21.73;46.72;100774.36;1737894;80;20176;-73
2023/09/08 11:46:25;;;;;;;;;;;;;;;21.76;46.75;100762.99;1751249;80;20495;-72
2023/09/08 11:48:51;;;;;;;;;;;;;;;21.82;46.90;100757.62;1769424;80;20163;-72
2023/09/08 11:51:23;;;;;;;;;;;;;;;21.88;46.78;100752.59;1736485;80;20452;-73
2023/09/08 11:53:50;;;;;;;;;;;;;;;21.96;46.65;100749.25;1770017;80;20953;-71
2023/09/08 11:56:17;;;;;;;;;;;;;;;22.03;46.73;100741.56;1769939;79;20603;-69
2023/09/08 12:09:05;;;;;;;;;;;;;;;22.12;46.42;100728.77;1703726;83;20112;-73
2023/09/08 12:11:41;;;;;;;;;;;;;;;22.14;46.11;100727.66;1732153;83;20163;-75
2023/09/08 12:14:09;;;;;;;;;;;;;;;22.17;46.05;100723.88;1742426;80;20202;-74
2023/09/08 12:16:36;;;;;;;;;;;;;;;22.18;45.59;100723.73;1745931;79;20122;-74
2023/09/08 12:19:03;;;;;;;;;;;;;;;22.17;45.75;100722.06;1780422;79;20214;-74
2023/09/08 12:21:32;;;;;;;;;;;;;;;22.18;45.55;100714.94;1781673;79;20101;-76
2023/09/08 12:34:17;;;;;;;;;;;;;;;22.14;45.91;100677.74;1732388;79;20554;-73
2023/09/08 12:36:46;;;;;;;;;;;;;;;22.14;45.33;100687.03;1754556;79;20095;-75
2023/09/08 12:39:14;;;;;;;;;;;;;;;22.13;45.06;100681.37;1785388;79;20104;-74
2023/09/08 12:41:41;;;;;;;;;;;;;;;22.10;45.02;100680.34;1783144;79;20182;-76
